Time;durP1;ratioP1;P1;durP2;ratioP2;P2;SDS_P1;SDS_P2;PMS_P1;PMS_P2;Temp;Humidity;BMP_temperature;BMP_pressure;BME280_temperature;BME280_humidity;BME280_pressure;Samples;Min_cycle;Max_cycle;Signal;HPM_P1;HPM_P2
2022/04/01 00:02:09;;;;;;;6.77;5.80;;;;;;;0.92;87.32;100276.09;5021212;28;20033;-61
2022/04/01 00:04:34;;;;;;;9.40;5.80;;;;;;;0.91;87.33;100281.47;5017340;28;20056;-61
2022/04/01 00:06:59;;;;;;;7.60;6.13;;;;;;;0.88;87.42;100279.09;5018054;28;20022;-61
2022/04/01 00:09:25;;;;;;;7.67;5.90;;;;;;;0.85;87.58;100274.91;5017796;28;20040;-61
2022/04/01 00:11:51;;;;;;;6.60;5.63;;;;;;;0.84;87.61;100281.09;5017893;28;20401;-61
2022/04/01 00:14:16;;;;;;;7.07;5.83;;;;;;;0.81;87.56;100276.13;5016161;28;20068;-61
2022/04/01 00:16:42;;;;;;;9.73;5.70;;;;;;;0.81;87.48;100288.34;5017774;28;20026;-61
2022/04/01 00:19:07;;;;;;;10.47;5.90;;;;;;;0.81;87.68;100290.97;5012655;28;20108;-61
2022/04/01 00:21:33;;;;;;;7.90;5.80;;;;;;;0.81;87.76;100297.03;5015932;28;20071;-61
2022/04/01 00:23:58;;;;;;;7.20;5.53;;;;;;;0.82;87.90;100288.22;5016112;28;20025;-61
2022/04/01 00:26:24;;;;;;;7.53;6.00;;;;;;;0.82;87.95;100297.84;5016363;28;20065;-61
2022/04/01 00:28:49;;;;;;;9.13;6.13;;;;;;;0.80;87.84;100297.97;5016501;28;20028;-61
2022/04/01 00:31:14;;;;;;;7.67;5.30;;;;;;;0.79;87.98;100300.72;5018443;28;20029;-61
2022/04/01 00:33:40;;;;;;;9.17;5.43;;;;;;;0.78;88.02;100293.81;5016363;28;20032;-61
2022/04/01 00:36:05;;;;;;;6.57;5.50;;;;;;;0.79;88.04;100300.72;5017814;28;20022;-61
2022/04/01 00:38:31;;;;;;;8.70;5.50;;;;;;;0.78;88.06;100293.81;5020899;28;20029;-61
2022/04/01 00:40:58;;;;;;;6.20;5.37;;;;;;;0.77;88.00;100303.44;5020545;28;20028;-61
2022/04/01 00:43:27;;;;;;;8.43;5.60;;;;;;;0.77;88.19;100302.63;5020452;28;20514;-61
2022/04/01 00:45:53;;;;;;;;;;;;;;;0.82;88.12;100297.84;5014068;28;20414;-61
2022/04/01 00:48:19;;;;;;;8.87;5.90;;;;;;;0.75;88.05;100302.75;5015502;28;19913;-61
2022/04/01 00:50:44;;;;;;;6.30;5.47;;;;;;;0.76;87.86;100296.56;5018986;28;20022;-60
2022/04/01 00:53:09;;;;;;;8.27;5.50;;;;;;;0.75;88.02;100299.28;5016981;28;20543;-61
2022/04/01 00:55:36;;;;;;;7.17;5.53;;;;;;;0.73;88.08;100307.25;5018425;28;20026;-61
2022/04/01 00:58:04;;;;;;;6.90;5.60;;;;;;;0.71;88.14;100297.88;5017287;28;20029;-60
2022/04/01 01:00:30;;;;;;;9.20;5.97;;;;;;;0.69;88.02;100300.63;5018446;28;20080;-61
2022/04/01 01:02:55;;;;;;;8.00;6.13;;;;;;;0.67;88.04;100307.75;5019102;28;20118;-61
2022/04/01 01:05:20;;;;;;;7.97;5.70;;;;;;;0.65;88.18;100314.88;5015148;28;20048;-61
2022/04/01 01:07:47;;;;;;;8.60;6.00;;;;;;;0.61;88.23;100308.22;5020327;28;20487;-61
2022/04/01 01:10:14;;;;;;;7.63;6.00;;;;;;;0.64;88.11;100323.66;5017525;28;20018;-62
2022/04/01 01:12:41;;;;;;;11.00;5.73;;;;;;;0.64;88.16;100313.22;5015284;28;20091;-61
2022/04/01 01:15:13;;;;;;;9.70;6.20;;;;;;;0.63;88.20;100316.78;5018936;28;20022;-61
2022/04/01 01:17:41;;;;;;;8.33;5.97;;;;;;;0.61;88.29;100318.69;5018571;28;20395;-61
2022/04/01 01:20:17;;;;;;;7.33;5.83;;;;;;;0.61;88.20;100329.97;5015596;28;20026;-61
2022/04/01 01:22:43;;;;;;;6.43;5.47;;;;;;;0.61;88.29;100327.34;5017222;28;20025;-61
2022/04/01 01:25:11;;;;;;;8.07;5.80;;;;;;;0.58;88.43;100309.31;5017150;28;20030;-61
2022/04/01 01:27:38;;;;;;;7.17;5.83;;;;;;;0.60;88.33;100312.63;5022513;28;20105;-61
2022/04/01 01:30:04;;;;;;;6.83;5.67;;;;;;;0.59;88.25;100313.56;5015026;28;20022;-61
2022/04/01 01:32:29;;;;;;;8.77;5.83;;;;;;;0.59;88.30;100312.75;5013282;28;20576;-61
2022/04/01 01:34:56;;;;;;;6.93;5.57;;;;;;;0.56;88.40;100313.78;5017282;28;20116;-61
2022/04/01 01:37:22;;;;;;;7.50;5.70;;;;;;;0.57;88.31;100317.22;5023439;28;20060;-61
2022/04/01 01:39:48;;;;;;;7.40;5.57;;;;;;;0.56;88.51;100318.19;5018681;28;20025;-61
2022/04/01 01:42:14;;;;;;;7.00;5.83;;;;;;;0.55;88.44;100325.19;5015618;28;20030;-61
2022/04/01 01:44:39;;;;;;;6.73;5.90;;;;;;;0.54;88.62;100320.91;5024410;28;20038;-61
2022/04/01 01:47:05;;;;;;;7.27;5.93;;;;;;;0.56;88.56;100324.25;5017529;28;20029;-61
2022/04/01 01:49:31;;;;;;;6.53;5.57;;;;;;;0.58;88.50;100334.59;5019499;28;20079;-61
2022/04/01 01:54:45;;;;;;;6.80;5.97;;;;;;;0.56;88.59;100337.31;5015048;28;20456;-61
2022/04/01 01:57:18;;;;;;;7.18;6.03;;;;;;;0.57;88.60;100333.75;5017643;28;20539;-61
2022/04/01 01:59:44;;;;;;;6.57;5.70;;;;;;;0.58;88.47;100334.59;5024532;28;21481;-61
2022/04/01 02:02:10;;;;;;;7.67;5.80;;;;;;;0.57;88.51;100335.53;5014467;28;20040;-61
2022/04/01 02:04:39;;;;;;;6.70;5.63;;;;;;;0.57;88.47;100332.91;5018486;28;20034;-61
2022/04/01 02:07:05;;;;;;;6.77;5.77;;;;;;;0.56;88.51;100341.69;5024241;28;20029;-61
2022/04/01 02:09:31;;;;;;;6.47;5.70;;;;;;;0.55;88.55;100342.66;5025590;28;20025;-61
2022/04/01 02:11:56;;;;;;;8.73;6.00;;;;;;;0.56;88.58;100341.69;5022751;28;20059;-61
2022/04/01 02:14:22;;;;;;;6.60;5.50;;;;;;;0.55;88.50;100346.09;5023399;28;20037;-61
2022/04/01 02:16:47;;;;;;;7.03;6.33;;;;;;;0.56;88.54;100349.53;5024644;28;20504;-61
2022/04/01 02:19:13;;;;;;;7.93;5.83;;;;;;;0.56;88.74;100349.53;5020859;28;20552;-61
2022/04/01 02:21:39;;;;;;;7.40;6.23;;;;;;;0.53;88.59;100347.16;5021400;28;20029;-61
2022/04/01 02:24:10;;;;;;;9.00;6.53;;;;;;;0.55;88.56;100353.09;5022794;28;20041;-60
2022/04/01 02:26:36;;;;;;;7.50;6.63;;;;;;;0.54;88.39;100354.88;5020562;28;20611;-61
2022/04/01 02:29:03;;;;;;;7.70;6.90;;;;;;;0.52;88.21;100359.38;5017080;28;20038;-61
2022/04/01 02:31:30;;;;;;;8.03;6.90;;;;;;;0.54;88.47;100354.88;5020661;28;20104;-61
2022/04/01 02:33:56;;;;;;;7.93;7.13;;;;;;;0.52;88.32;100355.94;5029731;28;20076;-61
2022/04/01 02:36:21;;;;;;;8.33;7.10;;;;;;;0.52;88.35;100366.41;5028354;28;20045;-61
2022/04/01 02:38:46;;;;;;;9.30;7.20;;;;;;;0.52;88.39;100364.63;5027870;28;20040;-60
2022/04/01 02:41:12;;;;;;;9.03;7.10;;;;;;;0.52;88.35;100363.78;5027763;28;20029;-60
2022/04/01 02:43:37;;;;;;;8.93;7.53;;;;;;;0.50;88.42;100369.13;5027976;28;20044;-61
2022/04/01 02:46:05;;;;;;;7.80;7.00;;;;;;;0.47;88.31;100353.69;5027442;28;20068;-61
2022/04/01 02:48:30;;;;;;;9.00;7.60;;;;;;;0.49;88.33;100369.25;5023654;28;20113;-61
2022/04/01 02:50:56;;;;;;;7.97;7.17;;;;;;;0.47;88.44;100377.19;5020646;28;20038;-61
2022/04/01 02:53:21;;;;;;;8.50;7.33;;;;;;;0.46;88.46;100377.31;5024062;28;20079;-61
2022/04/01 02:55:47;;;;;;;8.07;7.27;;;;;;;0.46;88.76;100372.09;5026248;28;20484;-61
2022/04/01 02:58:13;;;;;;;8.63;7.30;;;;;;;0.46;88.54;100379.94;5017857;28;20080;-61
2022/04/01 03:00:39;;;;;;;9.67;7.17;;;;;;;0.44;88.53;100382.66;5029279;28;20106;-61
2022/04/01 03:03:06;;;;;;;8.83;7.70;;;;;;;0.43;88.48;100388.00;5019293;28;20382;-61
2022/04/01 03:05:36;;;;;;;8.10;7.00;;;;;;;0.43;88.57;100393.22;5025849;28;20102;-61
2022/04/01 03:08:06;;;;;;;7.90;7.10;;;;;;;0.42;88.58;100397.63;5015222;28;20037;-61
2022/04/01 03:10:32;;;;;;;7.47;6.70;;;;;;;0.42;88.49;100395.00;5026018;28;20044;-60
2022/04/01 03:12:57;;;;;;;7.80;7.00;;;;;;;0.43;88.48;100396.69;5021382;28;20030;-61
2022/04/01 03:15:24;;;;;;;6.87;6.20;;;;;;;0.43;88.56;100401.06;5022851;28;20029;-60
2022/04/01 03:17:49;;;;;;;7.40;6.40;;;;;;;0.41;88.54;100400.34;5026985;28;20819;-61
2022/04/01 03:20:15;;;;;;;8.27;6.50;;;;;;;0.40;88.64;100396.09;5021782;28;20026;-60
2022/04/01 03:22:41;;;;;;;7.53;6.73;;;;;;;0.40;88.72;100404.75;5029047;28;20131;-61
2022/04/01 03:25:20;;;;;;;7.13;6.37;;;;;;;0.40;88.72;100406.53;5026894;28;20520;-61
2022/04/01 03:27:47;;;;;;;7.07;6.35;;;;;;;0.38;88.78;100411.03;5022585;28;20037;-61
2022/04/01 03:30:13;;;;;;;9.43;6.63;;;;;;;0.35;88.80;100417.31;5027734;28;20052;-61
2022/04/01 03:32:39;;;;;;;8.13;6.43;;;;;;;0.35;88.76;100416.50;5029632;28;20033;-61
2022/04/01 03:35:08;;;;;;;8.27;6.63;;;;;;;0.32;89.08;100427.19;5023532;28;20478;-61
2022/04/01 03:37:34;;;;;;;8.27;7.00;;;;;;;0.29;88.83;100426.47;5027096;28;20029;-61
2022/04/01 03:40:00;;;;;;;9.83;6.60;;;;;;;0.29;89.15;100429.06;5025704;28;20319;-61
2022/04/01 03:42:30;;;;;;;7.00;6.30;;;;;;;0.28;89.13;100429.16;5028868;28;20068;-61
2022/04/01 03:44:56;;;;;;;10.80;6.80;;;;;;;0.27;89.14;100430.94;5028333;28;20029;-61
2022/04/01 03:47:26;;;;;;;7.70;6.90;;;;;;;0.28;89.28;100437.81;5028727;28;20038;-61
2022/04/01 03:49:58;;;;;;;7.80;7.00;;;;;;;0.28;89.50;100437.00;5028006;28;20040;-61
2022/04/01 03:52:24;;;;;;;8.23;6.80;;;;;;;0.28;89.37;100439.59;5028268;28;20612;-60
2022/04/01 03:54:55;;;;;;;9.97;6.90;;;;;;;0.27;89.53;100446.59;5021193;28;20083;-61
2022/04/01 03:57:25;;;;;;;7.93;6.83;;;;;;;0.27;89.38;100451.81;5015059;28;20036;-61
2022/04/01 03:59:54;;;;;;;8.33;7.47;;;;;;;0.26;89.48;100452.78;5020316;28;20174;-61
2022/04/01 04:02:20;;;;;;;9.47;6.90;;;;;;;0.27;89.42;100453.59;5020599;28;20034;-60
2022/04/01 04:04:46;;;;;;;8.30;7.00;;;;;;;0.27;89.53;100457.06;5022762;28;20047;-60
2022/04/01 04:07:11;;;;;;;7.60;6.70;;;;;;;0.26;89.48;100458.00;5028114;28;20119;-61
2022/04/01 04:09:40;;;;;;;7.67;6.90;;;;;;;0.24;89.43;100472.94;5028859;28;20035;-61
2022/04/01 04:12:09;;;;;;;8.32;7.32;;;;;;;0.24;89.53;100467.72;5025425;28;20529;-61
2022/04/01 04:14:35;;;;;;;8.27;7.20;;;;;;;0.24;89.55;100478.16;5015343;28;20105;-61
2022/04/01 04:17:08;;;;;;;11.63;7.63;;;;;;;0.24;89.62;100485.16;5018050;28;20455;-61
2022/04/01 04:19:43;;;;;;;9.53;8.00;;;;;;;0.23;89.66;100486.94;5025547;28;20032;-61
2022/04/01 04:22:11;;;;;;;8.53;7.07;;;;;;;0.23;89.74;100486.13;5027732;28;20056;-61
2022/04/01 04:24:42;;;;;;;9.07;7.57;;;;;;;0.23;89.81;100491.34;5022132;28;20108;-61
2022/04/01 04:27:12;;;;;;;10.20;7.53;;;;;;;0.23;89.66;100491.34;5025046;28;20116;-61
2022/04/01 04:29:47;;;;;;;8.82;7.20;;;;;;;0.24;89.76;100493.00;5016357;28;20444;-60
2022/04/01 04:32:21;;;;;;;8.20;7.23;;;;;;;0.22;89.85;100495.72;5008935;28;20493;-61
2022/04/01 04:34:50;;;;;;;9.17;7.33;;;;;;;0.22;89.69;100492.28;5023482;28;20037;-61
2022/04/01 04:37:15;;;;;;;7.70;6.90;;;;;;;0.24;89.65;100509.50;5020454;28;20091;-61
2022/04/01 04:39:43;;;;;;;7.60;6.80;;;;;;;0.23;89.55;100507.84;5013366;28;20021;-61
2022/04/01 04:42:09;;;;;;;7.63;6.70;;;;;;;0.21;89.48;100509.72;5027868;28;20032;-60
2022/04/01 04:44:35;;;;;;;7.53;6.73;;;;;;;0.22;89.34;100514.00;5026221;28;20492;-61
2022/04/01 04:47:04;;;;;;;9.17;6.80;;;;;;;0.23;89.32;100520.91;5027700;28;20032;-61
2022/04/01 04:49:29;;;;;;;9.07;7.17;;;;;;;0.23;89.21;100520.06;5025625;28;20025;-60
2022/04/01 04:51:56;;;;;;;6.97;6.27;;;;;;;0.16;89.06;100511.03;5027994;28;20396;-61
2022/04/01 04:54:24;;;;;;;9.43;6.90;;;;;;;0.24;88.80;100524.34;5021845;28;20750;-61
2022/04/01 04:56:49;;;;;;;7.77;6.57;;;;;;;0.24;88.82;100533.00;5020278;28;20065;-61
2022/04/01 04:59:19;;;;;;;7.63;6.50;;;;;;;0.24;88.73;100533.00;5014833;28;20107;-60
2022/04/01 05:01:45;;;;;;;8.80;6.97;;;;;;;0.23;88.64;100536.56;5024329;28;20033;-60
2022/04/01 05:04:10;;;;;;;8.00;6.47;;;;;;;0.23;88.46;100549.63;5025568;28;20508;-61
2022/04/01 05:06:48;;;;;;;8.30;6.90;;;;;;;0.25;88.36;100557.34;5015284;28;20396;-61
2022/04/01 05:09:28;;;;;;;7.43;6.57;;;;;;;0.25;88.24;100554.72;5015903;28;20037;-61
2022/04/01 05:12:11;;;;;;;7.30;6.50;;;;;;;0.23;88.11;100561.84;5026403;28;20037;-61
2022/04/01 05:15:08;;;;;;;7.60;6.70;;;;;;;0.24;87.66;100573.97;5013200;28;20281;-61
2022/04/01 05:17:35;;;;;;;9.93;7.10;;;;;;;0.23;87.75;100569.69;5008775;28;20037;-61
2022/04/01 05:20:02;;;;;;;7.77;6.47;;;;;;;0.22;87.64;100570.63;5020833;28;20043;-61
2022/04/01 05:22:54;;;;;;;7.83;6.50;;;;;;;0.24;87.55;100576.56;5020599;28;20064;-60
2022/04/01 05:25:22;;;;;;;9.57;6.87;;;;;;;0.21;87.60;100577.63;5008772;28;20121;-61
2022/04/01 05:27:49;;;;;;;8.03;6.80;;;;;;;0.22;87.53;100587.13;5018697;28;20034;-61
2022/04/01 05:30:16;;;;;;;9.50;6.73;;;;;;;0.20;87.30;100583.78;5023795;28;20113;-60
2022/04/01 05:32:58;;;;;;;9.30;6.73;;;;;;;0.23;87.27;100595.78;5026576;28;20042;-61
2022/04/01 05:35:26;;;;;;;7.03;6.03;;;;;;;0.21;87.18;100593.28;5019670;28;20021;-60
2022/04/01 05:37:53;;;;;;;7.67;6.73;;;;;;;0.21;87.10;100597.69;5021107;28;20482;-61
2022/04/01 05:40:21;;;;;;;8.03;6.60;;;;;;;0.21;87.13;100606.34;5021049;28;20761;-61
2022/04/01 05:42:47;;;;;;;8.60;6.23;;;;;;;0.21;86.96;100603.75;5028297;28;20120;-60
2022/04/01 05:45:13;;;;;;;8.03;6.67;;;;;;;0.20;86.83;100604.69;5030384;28;20037;-60
2022/04/01 05:47:39;;;;;;;8.30;6.30;;;;;;;0.19;86.83;100618.69;5027644;28;20026;-61
2022/04/01 05:50:06;;;;;;;10.37;6.93;;;;;;;0.22;86.95;100617.63;5019676;28;20029;-61
2022/04/01 05:52:34;;;;;;;9.50;6.53;;;;;;;0.21;86.88;100624.63;5029854;28;20026;-60
2022/04/01 05:55:00;;;;;;;9.53;6.07;;;;;;;0.20;86.82;100622.13;5029476;28;20026;-61
2022/04/01 05:57:26;;;;;;;7.13;5.70;;;;;;;0.20;86.83;100633.41;5029965;28;20527;-60
2022/04/01 05:59:51;;;;;;;7.53;5.80;;;;;;;0.22;86.76;100633.28;5022101;28;20061;-61
2022/04/01 06:03:03;;;;;;;8.77;5.93;;;;;;;0.23;86.67;100641.03;5024589;28;20049;-61
2022/04/01 06:05:49;;;;;;;8.43;6.10;;;;;;;0.21;86.64;100639.47;5028809;28;20029;-61
2022/04/01 06:08:31;;;;;;;6.90;5.70;;;;;;;0.20;86.29;100651.69;5028554;28;20022;-61
2022/04/01 06:11:14;;;;;;;8.43;5.87;;;;;;;0.22;86.49;100656.78;5028908;28;20099;-60
2022/04/01 06:13:58;;;;;;;7.07;5.90;;;;;;;0.21;86.49;100661.19;5014312;28;20041;-61
2022/04/01 06:16:33;;;;;;;8.63;5.80;;;;;;;0.21;86.52;100666.41;5027766;28;20025;-61
2022/04/01 06:19:22;;;;;;;7.60;5.40;;;;;;;0.21;86.39;100666.41;5027675;28;20040;-61
2022/04/01 06:21:58;;;;;;;7.07;5.40;;;;;;;0.20;86.06;100669.13;5028211;28;20056;-61
2022/04/01 06:24:43;;;;;;;6.60;5.30;;;;;;;0.21;85.81;100674.25;5026233;28;20028;-60
2022/04/01 06:27:12;;;;;;;7.07;5.17;;;;;;;0.21;85.83;100682.06;5028128;28;20045;-61
2022/04/01 06:29:38;;;;;;;8.70;5.33;;;;;;;0.22;85.67;100694.19;5016418;28;20058;-61
2022/04/01 06:32:12;;;;;;;7.10;5.17;;;;;;;0.20;85.61;100690.84;5029385;28;20041;-60
2022/04/01 06:34:50;;;;;;;6.90;5.23;;;;;;;0.24;85.56;100696.69;5025681;28;20029;-61
2022/04/01 06:37:28;;;;;;;6.77;5.17;;;;;;;0.23;85.78;100697.63;5024543;28;20029;-61
2022/04/01 06:40:06;;;;;;;6.63;5.10;;;;;;;0.22;85.58;100696.81;5025394;28;20515;-61
2022/04/01 06:42:37;;;;;;;6.27;4.90;;;;;;;0.25;85.52;100712.25;5028790;28;20394;-61
2022/04/01 06:45:03;;;;;;;9.53;5.20;;;;;;;0.26;85.26;100716.53;5029767;28;20185;-61
2022/04/01 06:47:29;;;;;;;7.77;4.63;;;;;;;0.26;85.18;100719.13;5028110;28;20033;-61
2022/04/01 06:49:54;;;;;;;6.90;4.53;;;;;;;0.27;85.29;100723.41;5022845;28;20036;-61
2022/04/01 06:52:19;;;;;;;7.17;4.80;;;;;;;0.30;85.24;100728.44;5026565;28;20032;-61
2022/04/01 06:54:46;;;;;;;9.63;4.60;;;;;;;0.30;85.29;100732.84;5026487;28;20093;-61
2022/04/01 06:57:12;;;;;;;7.00;5.00;;;;;;;0.30;85.26;100738.91;5020822;28;20030;-61
2022/04/01 06:59:37;;;;;;;6.37;4.83;;;;;;;0.30;85.24;100738.91;5025649;28;20033;-61
2022/04/01 07:02:02;;;;;;;5.83;4.43;;;;;;;0.32;85.17;100732.72;5022506;28;20029;-61
2022/04/01 07:04:28;;;;;;;5.53;4.50;;;;;;;0.33;85.21;100737.84;5015347;28;20030;-61
2022/04/01 07:06:55;;;;;;;6.17;4.83;;;;;;;0.33;85.04;100742.25;5015942;28;20021;-60
2022/04/01 07:09:21;;;;;;;7.00;4.90;;;;;;;0.34;84.98;100747.34;5026869;28;20148;-60
2022/04/01 07:11:47;;;;;;;7.73;4.70;;;;;;;0.35;84.96;100749.03;5027674;28;20088;-60
2022/04/01 07:14:12;;;;;;;7.30;4.97;;;;;;;0.36;84.81;100752.47;5029016;28;20034;-61
2022/04/01 07:16:37;;;;;;;6.53;4.70;;;;;;;0.36;84.81;100755.09;5021794;28;20358;-61
2022/04/01 07:19:03;;;;;;;7.20;4.43;;;;;;;0.39;84.86;100754.88;5020431;28;20108;-61
2022/04/01 07:21:29;;;;;;;5.83;4.80;;;;;;;0.40;84.90;100757.38;5016388;28;20039;-61
2022/04/01 07:23:54;;;;;;;7.40;4.77;;;;;;;0.41;84.91;100755.59;5024401;28;20683;-61
2022/04/01 07:26:20;;;;;;;7.50;4.70;;;;;;;0.43;84.97;100757.16;5028853;28;20026;-61
2022/04/01 07:28:46;;;;;;;10.77;4.67;;;;;;;0.46;84.91;100764.75;5027682;28;20052;-61
2022/04/01 07:33:55;;;;;;;6.47;4.47;;;;;;;0.51;84.71;100761.81;5018088;28;20669;-61
2022/04/01 07:36:20;;;;;;;5.50;4.70;;;;;;;0.52;84.66;100782.63;5028287;28;20022;-61
2022/04/01 07:38:45;;;;;;;7.60;4.57;;;;;;;0.52;84.49;100773.94;5019641;28;20040;-61
2022/04/01 07:41:11;;;;;;;8.43;4.87;;;;;;;0.54;84.62;100785.97;5024286;28;20664;-61
2022/04/01 07:43:36;;;;;;;6.83;5.00;;;;;;;0.56;84.59;100783.22;5027877;28;20243;-61
2022/04/01 07:46:02;;;;;;;6.43;4.47;;;;;;;0.59;84.62;100785.66;5028054;28;20021;-61
2022/04/01 07:48:27;;;;;;;7.40;4.77;;;;;;;0.58;84.56;100795.28;5022956;28;20480;-61
2022/04/01 07:50:53;;;;;;;7.53;5.30;;;;;;;0.59;84.45;100796.13;5024512;28;20104;-61
2022/04/01 07:53:18;;;;;;;7.17;4.80;;;;;;;0.60;84.28;100797.78;5028057;28;20804;-61
2022/04/01 07:55:48;;;;;;;6.17;4.53;;;;;;;0.64;84.32;100806.22;5027814;28;20508;-61
2022/04/01 07:58:14;;;;;;;6.50;4.70;;;;;;;0.64;84.14;100799.22;5027889;28;20543;-61
2022/04/01 08:00:39;;;;;;;6.57;4.93;;;;;;;0.66;84.37;100807.78;5026198;28;20037;-61
2022/04/01 08:03:04;;;;;;;5.43;4.60;;;;;;;0.70;84.16;100808.41;5028092;28;20025;-61
2022/04/01 08:05:30;;;;;;;9.33;4.87;;;;;;;0.69;83.89;100802.34;5027800;28;20017;-61
2022/04/01 08:07:55;;;;;;;5.40;4.40;;;;;;;0.71;83.65;100810.91;5028005;28;20100;-61
2022/04/01 08:10:21;;;;;;;6.53;4.30;;;;;;;0.71;83.63;100816.13;5026871;28;20055;-61
2022/04/01 08:12:46;;;;;;;8.20;4.70;;;;;;;0.75;83.70;100827.22;5018052;28;20033;-61
2022/04/01 08:15:12;;;;;;;8.50;4.70;;;;;;;0.74;83.73;100818.53;5028062;28;20029;-61
2022/04/01 08:17:38;;;;;;;7.90;4.80;;;;;;;0.74;83.39;100821.16;5027409;28;20069;-61
2022/04/01 08:20:04;;;;;;;8.17;4.27;;;;;;;0.72;83.48;100828.25;5026547;28;20030;-60
2022/04/01 08:22:29;;;;;;;5.50;4.40;;;;;;;0.72;83.35;100841.34;5027609;28;20079;-61
2022/04/01 08:24:54;;;;;;;6.33;4.37;;;;;;;0.72;83.15;100841.34;5023752;28;20026;-61
2022/04/01 08:27:20;;;;;;;5.93;4.43;;;;;;;0.72;82.98;100849.16;5027639;28;20454;-61
2022/04/01 08:29:45;;;;;;;6.07;4.00;;;;;;;0.72;82.85;100849.16;5026529;28;20029;-61
2022/04/01 08:32:10;;;;;;;6.33;4.13;;;;;;;0.74;83.17;100857.75;5020370;28;20366;-61
2022/04/01 08:34:37;;;;;;;6.13;4.07;;;;;;;0.74;82.75;100862.97;5018217;28;20029;-61
2022/04/01 08:37:03;;;;;;;6.97;3.90;;;;;;;0.77;82.93;100867.97;5029381;28;20025;-61
2022/04/01 08:39:28;;;;;;;6.80;4.17;;;;;;;0.78;82.64;100868.81;5030774;28;20028;-61
2022/04/01 08:41:54;;;;;;;4.93;3.67;;;;;;;0.81;82.75;100868.59;5022787;28;20453;-61
2022/04/01 08:44:19;;;;;;;4.67;3.83;;;;;;;0.82;82.45;100878.94;5027535;28;20053;-61
2022/04/01 08:46:45;;;;;;;6.23;3.90;;;;;;;0.85;82.37;100876.09;5026908;28;20075;-61
2022/04/01 08:49:10;;;;;;;6.57;4.07;;;;;;;0.89;82.47;100880.22;5025938;28;20501;-61
2022/04/01 08:51:36;;;;;;;8.13;3.83;;;;;;;0.90;82.37;100883.66;5027241;28;20052;-61
2022/04/01 08:54:03;;;;;;;6.03;3.97;;;;;;;0.91;82.30;100887.94;5027313;28;20029;-61
2022/04/01 08:56:28;;;;;;;5.53;3.37;;;;;;;0.97;82.12;100897.13;5026586;28;20029;-61
2022/04/01 08:58:54;;;;;;;5.60;3.53;;;;;;;1.01;82.27;100896.81;5023850;28;20112;-61
2022/04/01 09:01:19;;;;;;;5.70;3.67;;;;;;;1.02;82.14;100901.09;5013414;28;20113;-61
2022/04/01 09:03:44;;;;;;;5.93;3.53;;;;;;;1.09;82.26;100904.09;5019941;28;20025;-61
2022/04/01 09:06:10;;;;;;;5.53;3.10;;;;;;;1.12;82.16;100902.09;5026159;28;20076;-61
2022/04/01 09:08:38;;;;;;;5.97;3.07;;;;;;;1.21;82.03;100918.94;5022398;28;20116;-61
2022/04/01 09:11:17;;;;;;;6.73;3.10;;;;;;;1.30;81.88;100914.81;5024823;28;20033;-61
2022/04/01 09:13:42;;;;;;;5.28;2.80;;;;;;;1.36;81.80;100911.78;5026243;28;20207;-61
2022/04/01 09:16:09;;;;;;;5.63;2.90;;;;;;;1.43;81.83;100916.44;5022878;28;20076;-61
2022/04/01 09:18:40;;;;;;;4.47;2.50;;;;;;;1.47;81.24;100915.31;5016332;28;20512;-61
2022/04/01 09:21:08;;;;;;;5.77;2.67;;;;;;;1.53;81.04;100924.50;5027123;28;20029;-61
2022/04/01 09:23:34;;;;;;;4.20;2.33;;;;;;;1.57;80.86;100915.47;5026434;28;20478;-61
2022/04/01 09:26:00;;;;;;;5.20;2.83;;;;;;;1.60;80.67;100933.56;5026965;28;20501;-61
2022/04/01 09:28:31;;;;;;;3.13;2.60;;;;;;;1.64;80.54;100924.53;5025712;28;20236;-61
2022/04/01 09:30:57;;;;;;;4.50;2.50;;;;;;;1.70;80.76;100931.09;5027079;28;20599;-61
2022/04/01 09:33:22;;;;;;;4.57;2.43;;;;;;;1.71;80.21;100928.38;5020862;28;20500;-61
2022/04/01 09:35:48;;;;;;;5.13;2.60;;;;;;;1.73;80.20;100931.72;5018174;28;20017;-61
2022/04/01 09:38:13;;;;;;;4.23;2.40;;;;;;;1.74;79.93;100933.41;5025671;28;20017;-61
2022/04/01 09:40:39;;;;;;;4.57;2.70;;;;;;;1.75;79.79;100942.09;5026988;28;20103;-61
2022/04/01 09:43:06;;;;;;;5.13;2.63;;;;;;;1.76;79.57;100936.75;5026686;28;20392;-61
2022/04/01 09:45:35;;;;;;;3.80;2.40;;;;;;;1.76;79.62;100943.78;5020776;28;20037;-61
2022/04/01 09:48:03;;;;;;;3.65;2.50;;;;;;;1.79;79.59;100946.16;5025211;28;20088;-61
2022/04/01 09:50:41;;;;;;;4.53;2.50;;;;;;;1.82;79.51;100943.31;5026807;28;20053;-61
2022/04/01 09:53:19;;;;;;;3.30;2.40;;;;;;;1.80;79.42;100939.97;5007859;28;20200;-61
2022/04/01 09:55:47;;;;;;;4.77;2.57;;;;;;;1.81;79.45;100946.88;5012970;28;20029;-61
2022/04/01 09:58:15;;;;;;;4.03;2.57;;;;;;;1.82;79.34;100944.16;5025357;28;20560;-61
2022/04/01 10:00:41;;;;;;;7.70;2.70;;;;;;;1.87;79.31;100943.81;5026440;28;20036;-61
2022/04/01 10:03:08;;;;;;;4.60;2.73;;;;;;;1.90;79.10;100948.00;5021505;28;20033;-61
2022/04/01 10:05:35;;;;;;;3.57;2.63;;;;;;;1.91;79.12;100934.78;5010203;28;20147;-61
2022/04/01 10:08:03;;;;;;;3.80;2.57;;;;;;;1.96;79.22;100930.03;5009760;28;20333;-64
2022/04/01 10:10:29;;;;;;;6.37;2.70;;;;;;;2.01;79.18;100930.53;5019177;28;20060;-60
2022/04/01 10:13:00;;;;;;;3.70;2.70;;;;;;;2.06;78.89;100936.28;5022724;28;20044;-61
2022/04/01 10:15:28;;;;;;;4.17;2.50;;;;;;;2.12;78.81;100937.59;5026265;28;20028;-61
2022/04/01 10:17:55;;;;;;;4.67;2.90;;;;;;;2.14;78.32;100940.94;5026650;28;20542;-61
2022/04/01 10:20:22;;;;;;;4.53;2.67;;;;;;;2.16;78.12;100931.19;5025470;28;20029;-61
2022/04/01 10:22:47;;;;;;;4.90;3.20;;;;;;;2.19;77.81;100946.69;5019923;28;20038;-61
2022/04/01 10:25:19;;;;;;;4.33;3.07;;;;;;;2.19;77.39;100941.44;5024188;28;20029;-61
2022/04/01 10:27:50;;;;;;;4.57;2.70;;;;;;;2.22;77.25;100943.00;5030517;28;20029;-61
2022/04/01 10:30:19;;;;;;;6.20;3.33;;;;;;;2.22;76.78;100943.81;5029332;28;20024;-61
2022/04/01 10:32:46;;;;;;;5.20;3.47;;;;;;;2.25;76.55;100938.34;5030353;28;20484;-61
2022/04/01 10:35:24;;;;;;;5.40;3.27;;;;;;;2.31;76.29;100937.06;5019622;28;20017;-61
2022/04/01 10:38:10;;;;;;;5.80;3.60;;;;;;;2.33;75.69;100938.63;5025105;28;20047;-61
2022/04/01 10:40:41;;;;;;;5.73;3.40;;;;;;;2.33;75.58;100956.16;5011419;28;20045;-61
2022/04/01 10:43:34;;;;;;;6.87;3.70;;;;;;;2.32;75.66;100944.84;5026036;28;20148;-61
2022/04/01 10:46:06;;;;;;;7.27;3.47;;;;;;;2.35;75.87;100956.88;5028321;28;20041;-61
2022/04/01 10:51:37;;;;;;;5.30;3.77;;;;;;;2.35;75.80;100954.25;5026191;28;20049;-61
2022/04/01 10:54:23;;;;;;;4.73;3.50;;;;;;;2.38;75.84;100957.47;5029311;28;20401;-61
2022/04/01 10:57:06;;;;;;;5.40;3.80;;;;;;;2.45;75.48;100960.47;5028463;28;20108;-61
2022/04/01 10:59:50;;;;;;;6.63;3.80;;;;;;;2.45;75.34;100955.22;5028105;28;20436;-61
2022/04/01 11:02:20;;;;;;;5.30;3.83;;;;;;;2.42;75.14;100964.16;5025704;28;20146;-61
2022/04/01 11:04:46;;;;;;;6.27;3.90;;;;;;;2.40;74.96;100970.44;5028680;28;20465;-61
2022/04/01 11:07:33;;;;;;;5.73;4.00;;;;;;;2.44;75.12;100969.28;5017169;28;20449;-61
2022/04/01 11:10:08;;;;;;;7.67;4.60;;;;;;;2.44;75.44;100969.28;5014478;28;20281;-61
2022/04/01 11:12:35;;;;;;;7.60;3.90;;;;;;;2.41;74.89;100977.38;5027996;28;20029;-61
2022/04/01 11:15:03;;;;;;;6.33;4.00;;;;;;;2.40;74.62;100983.56;5029547;28;20481;-61
2022/04/01 11:17:49;;;;;;;6.33;4.37;;;;;;;2.41;74.75;100982.59;5028630;28;20036;-61
2022/04/01 11:20:27;;;;;;;5.70;4.00;;;;;;;2.36;74.42;100984.75;5014783;28;20032;-61
2022/04/01 11:22:52;;;;;;;6.93;4.50;;;;;;;2.34;74.31;100982.22;5024950;28;20036;-61
2022/04/01 11:25:24;;;;;;;8.37;5.10;;;;;;;2.35;74.25;100990.94;5019071;28;20026;-61
2022/04/01 11:27:56;;;;;;;8.00;4.93;;;;;;;2.30;73.97;100998.28;5029162;28;20041;-61
2022/04/01 11:30:24;;;;;;;7.90;4.93;;;;;;;2.26;73.95;100983.72;5027654;28;20385;-61
2022/04/01 11:32:53;;;;;;;8.80;4.80;;;;;;;2.29;74.08;100996.59;5028950;28;20076;-61
2022/04/01 11:35:22;;;;;;;5.37;4.40;;;;;;;2.30;74.16;100999.09;5011666;28;20017;-61
2022/04/01 11:37:49;;;;;;;8.03;5.50;;;;;;;2.27;74.13;100988.84;5017317;28;20073;-61
2022/04/01 11:40:25;;;;;;;8.13;5.27;;;;;;;2.25;73.94;100995.16;5018826;28;20044;-61
2022/04/01 11:42:58;;;;;;;8.47;4.80;;;;;;;2.26;74.32;100984.56;5013887;28;20036;-61
2022/04/01 11:45:25;;;;;;;7.77;5.50;;;;;;;2.27;74.14;100995.88;5012668;28;20058;-61
2022/04/01 11:47:52;;;;;;;6.27;5.30;;;;;;;2.29;74.13;100989.56;5012164;28;20432;-61
2022/04/01 11:50:20;;;;;;;6.50;4.90;;;;;;;2.31;73.97;100994.69;5019013;28;20805;-61